sensor_id;sensor_type;location;lat;lon;timestamp;pressure;altitude;pressure_sealevel;temperature;humidity
5679;BME280;2862;52.560;13.566;2022-09-13T00:06:27;100416.16;;;15.43;78.31
5679;BME280;2862;52.560;13.566;2022-09-13T00:16:30;100397.44;;;15.41;77.98
5679;BME280;2862;52.560;13.566;2022-09-13T00:26:34;100382.78;;;15.44;77.66
5679;BME280;2862;52.560;13.566;2022-09-13T00:36:37;100375.69;;;15.34;77.87
5679;BME280;2862;52.560;13.566;2022-09-13T00:46:44;100344.88;;;15.29;77.92
5679;BME280;2862;52.560;13.566;2022-09-13T00:56:51;100332.94;;;15.23;78.41
5679;BME280;2862;52.560;13.566;2022-09-13T01:07:00;100324.50;;;15.10;79.06
5679;BME280;2862;52.560;13.566;2022-09-13T01:17:04;100313.06;;;15.08;78.73
5679;BME280;2862;52.560;13.566;2022-09-13T01:27:32;100306.16;;;15.05;79.08
5679;BME280;2862;52.560;13.566;2022-09-13T01:37:45;100307.50;;;14.93;79.55
5679;BME280;2862;52.560;13.566;2022-09-13T01:47:55;100281.72;;;14.74;80.77
5679;BME280;2862;52.560;13.566;2022-09-13T01:58:09;100281.06;;;14.80;80.39
5679;BME280;2862;52.560;13.566;2022-09-13T02:08:22;100264.91;;;14.80;79.76
5679;BME280;2862;52.560;13.566;2022-09-13T02:18:31;100256.84;;;14.80;79.99
5679;BME280;2862;52.560;13.566;2022-09-13T02:28:39;100245.72;;;14.67;80.60
5679;BME280;2862;52.560;13.566;2022-09-13T02:38:47;100235.28;;;14.64;80.61
5679;BME280;2862;52.560;13.566;2022-09-13T02:48:57;100218.56;;;14.36;82.69
5679;BME280;2862;52.560;13.566;2022-09-13T02:59:08;100215.16;;;14.26;83.08
5679;BME280;2862;52.560;13.566;2022-09-13T03:09:15;100190.19;;;14.50;81.71
5679;BME280;2862;52.560;13.566;2022-09-13T03:19:35;100172.53;;;14.47;81.45
5679;BME280;2862;52.560;13.566;2022-09-13T03:29:50;100159.09;;;14.47;81.03
5679;BME280;2862;52.560;13.566;2022-09-13T03:39:59;100154.91;;;14.53;80.26
5679;BME280;2862;52.560;13.566;2022-09-13T03:50:06;100167.69;;;14.51;80.22
5679;BME280;2862;52.560;13.566;2022-09-13T04:00:13;100160.41;;;14.43;80.71
5679;BME280;2862;52.560;13.566;2022-09-13T04:10:18;100127.94;;;14.45;80.74
5679;BME280;2862;52.560;13.566;2022-09-13T04:20:23;100118.38;;;14.42;80.94
5679;BME280;2862;52.560;13.566;2022-09-13T04:30:27;100108.25;;;14.20;82.62
5679;BME280;2862;52.560;13.566;2022-09-13T04:40:31;100095.50;;;14.30;82.29
5679;BME280;2862;52.560;13.566;2022-09-13T04:50:35;100089.13;;;14.31;81.97
5679;BME280;2862;52.560;13.566;2022-09-13T05:00:39;100071.31;;;14.46;81.20
5679;BME280;2862;52.560;13.566;2022-09-13T05:10:42;100071.31;;;14.54;80.88
5679;BME280;2862;52.560;13.566;2022-09-13T05:20:47;100062.34;;;14.95;79.94
5679;BME280;2862;52.560;13.566;2022-09-13T05:30:54;100036.66;;;15.23;78.44
5679;BME280;2862;52.560;13.566;2022-09-13T05:41:00;100040.06;;;15.17;80.20
5679;BME280;2862;52.560;13.566;2022-09-13T05:51:05;100045.41;;;15.25;78.98
5679;BME280;2862;52.560;13.566;2022-09-13T06:01:10;100047.09;;;15.26;78.29
5679;BME280;2862;52.560;13.566;2022-09-13T06:11:14;100057.28;;;15.00;82.49
5679;BME280;2862;52.560;13.566;2022-09-13T06:21:20;100070.59;;;14.85;85.15
5679;BME280;2862;52.560;13.566;2022-09-13T06:31:27;100073.16;;;14.70;86.79
5679;BME280;2862;52.560;13.566;2022-09-13T06:41:31;100080.91;;;14.65;88.24
5679;BME280;2862;52.560;13.566;2022-09-13T06:51:35;100090.47;;;14.68;89.85
5679;BME280;2862;52.560;13.566;2022-09-13T07:01:41;100048.94;;;14.62;94.15
5679;BME280;2862;52.560;13.566;2022-09-13T07:11:46;100036.38;;;15.10;92.32
5679;BME280;2862;52.560;13.566;2022-09-13T07:21:51;100014.13;;;15.55;88.51
5679;BME280;2862;52.560;13.566;2022-09-13T07:31:54;100011.22;;;15.65;88.04
5679;BME280;2862;52.560;13.566;2022-09-13T07:41:58;100012.91;;;15.66;88.23
5679;BME280;2862;52.560;13.566;2022-09-13T07:52:01;100017.53;;;15.49;91.28
5679;BME280;2862;52.560;13.566;2022-09-13T08:02:07;100030.50;;;15.77;90.60
5679;BME280;2862;52.560;13.566;2022-09-13T08:12:11;100003.69;;;16.06;88.74
5679;BME280;2862;52.560;13.566;2022-09-13T08:22:15;99992.69;;;16.98;83.33
5679;BME280;2862;52.560;13.566;2022-09-13T08:32:17;99997.41;;;17.98;80.83
5679;BME280;2862;52.560;13.566;2022-09-13T08:42:30;100000.50;;;18.44;78.40
5679;BME280;2862;52.560;13.566;2022-09-13T08:52:47;100025.16;;;17.85;81.86
5679;BME280;2862;52.560;13.566;2022-09-13T09:03:11;100007.09;;;18.35;79.31
5679;BME280;2862;52.560;13.566;2022-09-13T09:13:25;99982.94;;;18.96;76.72
5679;BME280;2862;52.560;13.566;2022-09-13T09:23:35;99991.59;;;19.20;75.62
5679;BME280;2862;52.560;13.566;2022-09-13T09:33:50;99986.22;;;19.94;72.00
5679;BME280;2862;52.560;13.566;2022-09-13T09:44:05;99985.69;;;19.51;73.29
5679;BME280;2862;52.560;13.566;2022-09-13T09:54:11;99975.47;;;21.12;68.20
5679;BME280;2862;52.560;13.566;2022-09-13T10:04:20;99976.25;;;21.26;65.83
5679;BME280;2862;52.560;13.566;2022-09-13T10:14:30;99951.59;;;21.65;66.31
5679;BME280;2862;52.560;13.566;2022-09-13T10:24:38;99954.31;;;21.65;64.28
5679;BME280;2862;52.560;13.566;2022-09-13T10:34:41;99953.84;;;22.00;62.88
5679;BME280;2862;52.560;13.566;2022-09-13T10:44:52;99939.47;;;21.61;64.37
5679;BME280;2862;52.560;13.566;2022-09-13T10:55:25;99927.00;;;21.47;64.33
5679;BME280;2862;52.560;13.566;2022-09-13T11:05:31;99923.81;;;21.57;65.44
5679;BME280;2862;52.560;13.566;2022-09-13T11:15:49;99938.03;;;21.14;66.77
5679;BME280;2862;52.560;13.566;2022-09-13T11:26:08;99919.78;;;20.76;69.49
5679;BME280;2862;52.560;13.566;2022-09-13T11:36:32;99921.31;;;20.26;71.01
5679;BME280;2862;52.560;13.566;2022-09-13T11:46:41;99924.03;;;20.06;70.81
5679;BME280;2862;52.560;13.566;2022-09-13T11:56:48;99927.78;;;19.85;72.60
5679;BME280;2862;52.560;13.566;2022-09-13T12:06:57;99914.00;;;19.86;73.27
5679;BME280;2862;52.560;13.566;2022-09-13T12:17:03;99924.88;;;19.80;74.54
5679;BME280;2862;52.560;13.566;2022-09-13T12:27:23;99929.03;;;19.69;75.46
5679;BME280;2862;52.560;13.566;2022-09-13T12:37:47;99935.72;;;19.80;80.09
5679;BME280;2862;52.560;13.566;2022-09-13T12:48:12;99929.88;;;20.09;81.60
5679;BME280;2862;52.560;13.566;2022-09-13T13:08:50;99921.50;;;20.17;81.20
5679;BME280;2862;52.560;13.566;2022-09-13T13:18:54;99909.19;;;20.28;80.63
5679;BME280;2862;52.560;13.566;2022-09-13T13:29:12;99900.22;;;20.28;80.60
5679;BME280;2862;52.560;13.566;2022-09-13T13:39:32;99894.41;;;19.98;81.32
5679;BME280;2862;52.560;13.566;2022-09-13T13:49:43;99882.06;;;19.95;78.58
5679;BME280;2862;52.560;13.566;2022-09-13T13:59:48;99874.19;;;20.78;74.94
5679;BME280;2862;52.560;13.566;2022-09-13T14:09:56;99870.53;;;20.59;75.89
5679;BME280;2862;52.560;13.566;2022-09-13T14:20:04;99875.66;;;20.74;74.80
5679;BME280;2862;52.560;13.566;2022-09-13T14:30:18;99869.25;;;20.62;74.20
5679;BME280;2862;52.560;13.566;2022-09-13T14:40:24;99873.63;;;20.63;74.95
5679;BME280;2862;52.560;13.566;2022-09-13T14:50:31;99864.03;;;20.60;75.21
5679;BME280;2862;52.560;13.566;2022-09-13T15:00:44;99863.06;;;20.86;73.70
5679;BME280;2862;52.560;13.566;2022-09-13T15:10:55;99848.38;;;20.56;74.01
5679;BME280;2862;52.560;13.566;2022-09-13T15:21:00;99851.75;;;20.38;74.42
5679;BME280;2862;52.560;13.566;2022-09-13T15:31:06;99835.66;;;20.50;74.33
5679;BME280;2862;52.560;13.566;2022-09-13T15:41:12;99818.72;;;20.34;74.72
5679;BME280;2862;52.560;13.566;2022-09-13T15:51:17;99822.53;;;20.27;74.58
5679;BME280;2862;52.560;13.566;2022-09-13T16:01:20;99822.97;;;20.17;75.15
5679;BME280;2862;52.560;13.566;2022-09-13T16:11:24;99829.25;;;19.98;75.59
5679;BME280;2862;52.560;13.566;2022-09-13T16:21:29;99819.69;;;19.82;76.11
5679;BME280;2862;52.560;13.566;2022-09-13T16:31:34;99815.69;;;19.58;76.21
5679;BME280;2862;52.560;13.566;2022-09-13T16:41:37;99813.16;;;19.43;77.64
5679;BME280;2862;52.560;13.566;2022-09-13T16:51:42;99811.06;;;19.19;79.50
5679;BME280;2862;52.560;13.566;2022-09-13T17:01:45;99826.88;;;19.02;81.50
5679;BME280;2862;52.560;13.566;2022-09-13T17:11:49;99814.38;;;19.07;80.64
5679;BME280;2862;52.560;13.566;2022-09-13T17:21:53;99817.66;;;18.90;81.58
5679;BME280;2862;52.560;13.566;2022-09-13T17:32:00;99819.91;;;18.73;82.52
5679;BME280;2862;52.560;13.566;2022-09-13T17:42:04;99808.94;;;18.46;84.60
5679;BME280;2862;52.560;13.566;2022-09-13T17:52:08;99815.31;;;18.32;86.72
5679;BME280;2862;52.560;13.566;2022-09-13T18:02:11;99823.69;;;18.37;86.06
5679;BME280;2862;52.560;13.566;2022-09-13T18:12:15;99833.03;;;18.35;86.27
5679;BME280;2862;52.560;13.566;2022-09-13T18:22:18;99828.41;;;18.28;85.93
5679;BME280;2862;52.560;13.566;2022-09-13T18:32:22;99838.41;;;18.28;85.99
5679;BME280;2862;52.560;13.566;2022-09-13T18:42:26;99841.78;;;18.37;85.68
5679;BME280;2862;52.560;13.566;2022-09-13T18:52:32;99850.69;;;18.24;86.07
5679;BME280;2862;52.560;13.566;2022-09-13T19:02:34;99853.16;;;18.19;85.99
5679;BME280;2862;52.560;13.566;2022-09-13T19:12:45;99857.84;;;18.10;86.75
5679;BME280;2862;52.560;13.566;2022-09-13T19:22:48;99845.75;;;18.06;87.01
5679;BME280;2862;52.560;13.566;2022-09-13T19:32:54;99853.16;;;17.91;87.92
5679;BME280;2862;52.560;13.566;2022-09-13T19:42:57;99863.22;;;17.75;88.72
5679;BME280;2862;52.560;13.566;2022-09-13T19:53:01;99864.38;;;17.66;88.93
5679;BME280;2862;52.560;13.566;2022-09-13T20:03:04;99857.41;;;17.57;90.04
5679;BME280;2862;52.560;13.566;2022-09-13T20:13:09;99874.16;;;17.46;90.17
5679;BME280;2862;52.560;13.566;2022-09-13T20:23:12;99866.19;;;17.38;90.52
5679;BME280;2862;52.560;13.566;2022-09-13T20:33:16;99858.31;;;17.21;91.35
5679;BME280;2862;52.560;13.566;2022-09-13T20:43:18;99861.97;;;17.14;90.70
5679;BME280;2862;52.560;13.566;2022-09-13T20:53:23;99870.41;;;17.04;90.32
5679;BME280;2862;52.560;13.566;2022-09-13T21:03:26;99855.25;;;16.88;87.66
5679;BME280;2862;52.560;13.566;2022-09-13T21:13:32;99846.25;;;16.81;86.01
5679;BME280;2862;52.560;13.566;2022-09-13T21:23:35;99857.59;;;16.62;83.37
5679;BME280;2862;52.560;13.566;2022-09-13T21:33:41;99865.72;;;16.47;81.62
5679;BME280;2862;52.560;13.566;2022-09-13T21:43:45;99873.53;;;16.42;81.80
5679;BME280;2862;52.560;13.566;2022-09-13T21:53:52;99877.88;;;16.28;81.62
5679;BME280;2862;52.560;13.566;2022-09-13T22:03:58;99864.84;;;16.17;83.07
5679;BME280;2862;52.560;13.566;2022-09-13T22:14:03;99871.56;;;16.06;82.90
5679;BME280;2862;52.560;13.566;2022-09-13T22:24:07;99872.84;;;15.96;83.10
5679;BME280;2862;52.560;13.566;2022-09-13T22:34:13;99866.88;;;15.85;80.41
5679;BME280;2862;52.560;13.566;2022-09-13T22:44:16;99881.25;;;15.78;80.15
5679;BME280;2862;52.560;13.566;2022-09-13T22:54:20;99880.13;;;15.72;80.02
5679;BME280;2862;52.560;13.566;2022-09-13T23:04:23;99882.34;;;15.69;80.53
5679;BME280;2862;52.560;13.566;2022-09-13T23:14:28;99891.47;;;15.59;80.54
5679;BME280;2862;52.560;13.566;2022-09-13T23:24:31;99886.50;;;15.48;79.50
5679;BME280;2862;52.560;13.566;2022-09-13T23:34:35;99885.56;;;15.41;78.78
5679;BME280;2862;52.560;13.566;2022-09-13T23:44:38;99869.78;;;15.38;77.98
5679;BME280;2862;52.560;13.566;2022-09-13T23:54:42;99877.34;;;15.34;77.91
